createdAt,value
2018-02-16T00:00:25.361Z,32.90
2018-02-16T00:01:25.343Z,31.90
2018-02-16T00:02:25.320Z,31.70
2018-02-16T00:03:25.307Z,32.70
2018-02-16T00:04:25.282Z,33.40
2018-02-16T00:05:25.257Z,32.60
2018-02-16T00:06:25.236Z,32.30
2018-02-16T00:07:25.563Z,31.90
2018-02-16T00:08:25.193Z,31.30
2018-02-16T00:09:25.175Z,32.40
2018-02-16T00:10:25.166Z,33.20
2018-02-16T00:11:25.133Z,31.00
2018-02-16T00:12:25.108Z,33.70
2018-02-16T00:13:25.087Z,33.10
2018-02-16T00:14:25.063Z,33.00
2018-02-16T00:15:25.064Z,34.10
2018-02-16T00:16:25.024Z,33.30
2018-02-16T00:17:25.003Z,32.90
2018-02-16T00:18:25.233Z,32.50
2018-02-16T00:19:24.962Z,32.80
2018-02-16T00:20:24.941Z,33.20
2018-02-16T00:21:24.918Z,33.10
2018-02-16T00:22:24.899Z,33.30
2018-02-16T00:23:24.878Z,33.60
2018-02-16T00:24:24.854Z,31.90
2018-02-16T00:25:24.861Z,32.10
2018-02-16T00:26:24.813Z,31.90
2018-02-16T00:27:24.791Z,30.90
2018-02-16T00:28:24.773Z,32.90
2018-02-16T00:29:24.750Z,32.30
2018-02-16T00:30:24.729Z,33.20
2018-02-16T00:31:24.706Z,32.00
2018-02-16T00:32:24.689Z,33.10
2018-02-16T00:33:24.665Z,33.30
2018-02-16T00:34:24.893Z,33.40
2018-02-16T00:35:24.622Z,33.00
2018-02-16T00:36:24.601Z,32.70
2018-02-16T00:37:24.582Z,32.40
2018-02-16T00:38:24.561Z,32.00
2018-02-16T00:39:24.795Z,33.40
2018-02-16T00:40:24.521Z,32.80
2018-02-16T00:41:24.496Z,33.20
2018-02-16T00:42:24.483Z,34.30
2018-02-16T00:43:24.454Z,32.70
2018-02-16T00:44:24.435Z,34.50
2018-02-16T00:45:24.418Z,32.40
2018-02-16T00:46:24.393Z,34.10
2018-02-16T00:47:24.371Z,34.00
2018-02-16T00:48:24.352Z,33.60
2018-02-16T00:49:24.579Z,34.10
2018-02-16T00:50:24.307Z,32.40
2018-02-16T00:51:24.293Z,34.10
2018-02-16T00:52:24.268Z,32.40
2018-02-16T00:53:24.243Z,33.10
2018-02-16T00:54:24.220Z,33.30
2018-02-16T00:55:24.202Z,33.40
2018-02-16T00:56:24.179Z,33.60
2018-02-16T00:57:24.165Z,32.70
2018-02-16T00:58:24.137Z,33.00
2018-02-16T00:59:24.118Z,31.80
2018-02-16T01:00:24.092Z,33.10
2018-02-16T01:01:24.074Z,33.60
2018-02-16T01:02:24.054Z,33.20
2018-02-16T01:03:24.032Z,33.70
2018-02-16T01:04:24.012Z,33.50
2018-02-16T01:05:23.990Z,33.60
2018-02-16T01:06:23.967Z,33.80
2018-02-16T01:07:23.946Z,33.00
2018-02-16T01:08:23.923Z,32.90
2018-02-16T01:09:23.912Z,34.10
2018-02-16T01:10:23.888Z,31.50
2018-02-16T01:11:23.863Z,32.20
2018-02-16T01:12:23.844Z,34.00
2018-02-16T01:13:23.822Z,35.50
2018-02-16T01:14:23.801Z,34.90
2018-02-16T01:15:23.783Z,36.10
2018-02-16T01:16:23.762Z,33.90
2018-02-16T01:17:23.737Z,32.70
2018-02-16T01:18:23.716Z,34.50
2018-02-16T01:19:23.694Z,35.60
2018-02-16T01:20:23.776Z,35.50
2018-02-16T01:21:23.653Z,36.20
2018-02-16T01:22:23.683Z,36.50
2018-02-16T01:23:23.610Z,33.60
2018-02-16T01:24:23.594Z,34.60
2018-02-16T01:25:23.570Z,35.90
2018-02-16T01:26:23.557Z,33.90
2018-02-16T01:27:23.531Z,35.50
2018-02-16T01:28:23.561Z,37.00
2018-02-16T01:29:23.485Z,36.80
2018-02-16T01:30:23.616Z,36.40
2018-02-16T01:31:23.445Z,37.10
2018-02-16T01:32:23.424Z,36.50
2018-02-16T01:33:23.404Z,34.70
2018-02-16T01:34:23.383Z,35.90
2018-02-16T01:35:23.365Z,37.20
2018-02-16T01:36:23.340Z,36.40
2018-02-16T01:37:23.325Z,37.00
2018-02-16T01:38:23.368Z,36.10
2018-02-16T01:39:23.278Z,37.00
2018-02-16T01:40:23.263Z,35.40
2018-02-16T01:41:23.239Z,34.90
2018-02-16T01:42:23.214Z,34.70
2018-02-16T01:43:23.193Z,35.70
2018-02-16T01:44:23.174Z,37.10
2018-02-16T01:45:23.151Z,35.00
2018-02-16T01:46:23.181Z,35.90
2018-02-16T01:47:23.115Z,37.80
2018-02-16T01:48:23.095Z,37.40
2018-02-16T01:49:23.071Z,38.10
2018-02-16T01:50:23.152Z,38.30
2018-02-16T01:51:23.028Z,37.50
2018-02-16T01:52:23.014Z,36.90
2018-02-16T01:53:22.985Z,39.20
2018-02-16T01:54:23.091Z,39.00
2018-02-16T01:55:22.943Z,39.20
2018-02-16T01:56:22.921Z,37.30
2018-02-16T01:57:22.899Z,37.00
2018-02-16T01:58:22.924Z,39.70
2018-02-16T01:59:22.865Z,41.40
2018-02-16T02:00:23.093Z,40.70
2018-02-16T02:01:22.818Z,40.00
2018-02-16T02:02:22.802Z,39.40
2018-02-16T02:03:22.776Z,40.70
2018-02-16T02:04:22.756Z,37.50
2018-02-16T02:05:22.733Z,40.00
2018-02-16T02:06:22.716Z,38.60
2018-02-16T02:07:22.692Z,40.20
2018-02-16T02:08:22.673Z,38.80
2018-02-16T02:09:22.650Z,38.20
2018-02-16T02:10:22.877Z,40.00
2018-02-16T02:11:22.610Z,39.70
2018-02-16T02:12:22.587Z,38.60
2018-02-16T02:13:22.572Z,36.40
2018-02-16T02:14:22.549Z,37.80
2018-02-16T02:15:22.521Z,38.30
2018-02-16T02:16:22.502Z,38.80
2018-02-16T02:17:22.490Z,36.00
2018-02-16T02:18:22.463Z,36.90
2018-02-16T02:19:22.440Z,38.00
2018-02-16T02:20:22.423Z,37.70
2018-02-16T02:21:22.398Z,36.80
2018-02-16T02:22:22.386Z,37.60
2018-02-16T02:23:22.359Z,36.90
2018-02-16T02:24:22.342Z,36.80
2018-02-16T02:25:22.385Z,36.70
2018-02-16T02:26:22.299Z,38.00
2018-02-16T02:27:22.274Z,37.80
2018-02-16T02:28:22.255Z,36.90
2018-02-16T02:29:22.234Z,35.70
2018-02-16T02:30:22.213Z,38.30
2018-02-16T02:31:22.192Z,38.30
2018-02-16T02:32:22.170Z,35.80
2018-02-16T02:33:22.148Z,36.50
2018-02-16T02:34:22.129Z,36.30
2018-02-16T02:35:22.115Z,36.30
2018-02-16T02:36:22.087Z,37.30
2018-02-16T02:37:22.067Z,36.20
2018-02-16T02:38:22.045Z,36.30
2018-02-16T02:39:22.026Z,37.40
2018-02-16T02:40:22.003Z,36.70
2018-02-16T02:41:21.986Z,36.10
2018-02-16T02:42:21.964Z,38.30
2018-02-16T02:43:21.940Z,36.70
2018-02-16T02:44:21.920Z,36.70
2018-02-16T02:45:21.900Z,36.60
2018-02-16T02:46:21.883Z,36.70
2018-02-16T02:47:21.858Z,36.40
2018-02-16T02:48:21.844Z,35.70
2018-02-16T02:49:21.816Z,35.90
2018-02-16T02:50:21.803Z,37.40
2018-02-16T02:51:21.774Z,34.80
2018-02-16T02:52:21.757Z,36.30
2018-02-16T02:53:21.733Z,34.90
2018-02-16T02:54:21.708Z,36.20
2018-02-16T02:55:21.688Z,35.80
2018-02-16T02:56:21.670Z,37.10
2018-02-16T02:57:21.646Z,37.40
2018-02-16T02:58:21.645Z,35.70
2018-02-16T02:59:21.885Z,37.10
2018-02-16T03:00:21.586Z,35.60
2018-02-16T03:01:21.564Z,35.90
2018-02-16T03:02:21.542Z,37.10
2018-02-16T03:03:21.524Z,36.60
2018-02-16T03:04:21.502Z,36.80
2018-02-16T03:05:21.483Z,36.40
2018-02-16T03:06:21.461Z,37.40
2018-02-16T03:07:21.441Z,35.90
2018-02-16T03:08:21.416Z,37.10
2018-02-16T03:09:21.400Z,36.70
2018-02-16T03:10:21.377Z,38.00
2018-02-16T03:11:21.360Z,37.60
2018-02-16T03:12:21.336Z,37.30
2018-02-16T03:13:21.313Z,38.00
2018-02-16T03:14:21.295Z,37.60
2018-02-16T03:15:21.273Z,37.90
2018-02-16T03:16:21.248Z,35.60
2018-02-16T03:17:21.241Z,36.70
2018-02-16T03:18:21.211Z,35.90
2018-02-16T03:19:21.189Z,37.80
2018-02-16T03:20:21.170Z,37.70
2018-02-16T03:21:21.146Z,37.10
2018-02-16T03:22:21.127Z,37.20
2018-02-16T03:23:21.105Z,37.50
2018-02-16T03:24:21.083Z,37.30
2018-02-16T03:25:21.068Z,37.10
2018-02-16T03:26:21.045Z,36.70
2018-02-16T03:27:21.269Z,37.30
2018-02-16T03:28:21.004Z,37.20
2018-02-16T03:29:20.980Z,36.40
2018-02-16T03:30:20.962Z,37.70
2018-02-16T03:31:21.237Z,36.70
2018-02-16T03:32:20.917Z,38.20
2018-02-16T03:33:20.898Z,37.30
2018-02-16T03:34:20.878Z,37.10
2018-02-16T03:35:20.854Z,37.30
2018-02-16T03:36:20.834Z,37.00
2018-02-16T03:37:20.815Z,38.10
2018-02-16T03:38:20.795Z,38.40
2018-02-16T03:39:20.774Z,38.00
2018-02-16T03:40:20.751Z,37.40
2018-02-16T03:41:20.734Z,38.10
2018-02-16T03:42:20.712Z,36.90
2018-02-16T03:43:20.691Z,37.00
2018-02-16T03:44:20.670Z,37.00
2018-02-16T03:45:20.647Z,36.90
2018-02-16T03:46:20.632Z,37.30
2018-02-16T03:47:20.607Z,36.50
2018-02-16T03:48:20.584Z,37.70
2018-02-16T03:49:20.566Z,36.70
2018-02-16T03:50:20.544Z,37.20
2018-02-16T03:51:20.523Z,38.30
2018-02-16T03:52:20.504Z,37.50
2018-02-16T03:53:20.481Z,37.40
2018-02-16T03:54:20.464Z,37.10
2018-02-16T03:55:20.439Z,36.20
2018-02-16T03:56:20.418Z,36.60
2018-02-16T03:57:20.402Z,36.40
2018-02-16T03:58:20.377Z,37.90
2018-02-16T03:59:20.358Z,35.90
2018-02-16T04:00:20.338Z,38.40
2018-02-16T04:01:20.314Z,36.20
2018-02-16T04:02:20.294Z,37.80
2018-02-16T04:03:20.274Z,37.70
2018-02-16T04:04:20.252Z,37.90
2018-02-16T04:05:20.233Z,36.80
2018-02-16T04:06:20.221Z,37.90
2018-02-16T04:07:20.188Z,35.10
2018-02-16T04:08:20.166Z,37.90
2018-02-16T04:09:20.154Z,38.10
2018-02-16T04:10:20.130Z,37.30
2018-02-16T04:11:20.102Z,36.70
2018-02-16T04:12:20.093Z,37.10
2018-02-16T04:13:20.065Z,37.70
2018-02-16T04:14:20.045Z,36.80
2018-02-16T04:15:20.021Z,36.50
2018-02-16T04:16:20.014Z,36.80
2018-02-16T04:17:19.981Z,36.60
2018-02-16T04:18:19.957Z,37.40
2018-02-16T04:19:19.944Z,37.40
2018-02-16T04:20:19.919Z,39.30
2018-02-16T04:21:19.904Z,40.10
2018-02-16T04:22:19.880Z,38.00
2018-02-16T04:23:19.854Z,38.00
2018-02-16T04:24:19.834Z,37.70
2018-02-16T04:25:19.814Z,38.80
2018-02-16T04:26:19.793Z,37.50
2018-02-16T04:27:19.822Z,37.50
2018-02-16T04:28:19.752Z,37.50
2018-02-16T04:29:19.734Z,37.40
2018-02-16T04:30:19.710Z,36.80
2018-02-16T04:31:19.690Z,38.00
2018-02-16T04:32:19.674Z,36.00
2018-02-16T04:33:19.722Z,36.30
2018-02-16T04:34:19.629Z,35.50
2018-02-16T04:35:19.605Z,37.80
2018-02-16T04:36:19.584Z,36.60
2018-02-16T04:37:19.765Z,36.10
2018-02-16T04:38:19.544Z,35.90
2018-02-16T04:39:19.532Z,37.80
2018-02-16T04:40:19.504Z,37.90
2018-02-16T04:41:19.579Z,38.30
2018-02-16T04:42:19.459Z,37.40
2018-02-16T04:43:19.538Z,36.00
2018-02-16T04:44:19.420Z,37.00
2018-02-16T04:45:19.394Z,38.30
2018-02-16T04:46:19.374Z,36.80
2018-02-16T04:47:19.357Z,39.50
2018-02-16T04:48:19.340Z,38.60
2018-02-16T04:49:19.366Z,37.20
2018-02-16T04:50:19.292Z,36.70
2018-02-16T04:51:19.273Z,35.60
2018-02-16T04:52:19.253Z,37.40
2018-02-16T04:53:19.228Z,38.60
2018-02-16T04:54:19.211Z,39.40
2018-02-16T04:55:19.291Z,39.20
2018-02-16T04:56:19.164Z,39.90
2018-02-16T04:57:19.150Z,38.10
2018-02-16T04:58:19.122Z,51.50
2018-02-16T04:59:19.100Z,41.40
2018-02-16T05:00:19.083Z,44.20
2018-02-16T05:01:19.064Z,54.80
2018-02-16T05:02:19.046Z,56.60
2018-02-16T05:03:19.023Z,51.10
2018-02-16T05:04:18.999Z,46.60
2018-02-16T05:05:19.000Z,45.20
2018-02-16T05:06:18.955Z,41.40
2018-02-16T05:07:18.942Z,40.70
2018-02-16T05:08:18.925Z,40.90
2018-02-16T05:09:18.940Z,41.50
2018-02-16T05:10:18.872Z,41.10
2018-02-16T05:11:18.849Z,41.00
2018-02-16T05:12:18.833Z,39.20
2018-02-16T05:13:18.810Z,41.20
2018-02-16T05:14:18.801Z,40.90
2018-02-16T05:15:18.765Z,42.20
2018-02-16T05:16:18.746Z,41.20
2018-02-16T05:17:18.730Z,39.90
2018-02-16T05:18:18.705Z,43.30
2018-02-16T05:19:18.682Z,41.30
2018-02-16T05:20:18.660Z,41.40
2018-02-16T05:21:18.643Z,43.80
2018-02-16T05:22:18.618Z,46.30
2018-02-16T05:23:18.605Z,46.30
2018-02-16T05:24:18.576Z,47.00
2018-02-16T05:25:18.558Z,46.20
2018-02-16T05:26:18.532Z,45.80
2018-02-16T05:27:18.510Z,44.40
2018-02-16T05:28:18.494Z,43.90
2018-02-16T05:29:18.469Z,45.20
2018-02-16T05:30:18.448Z,46.60
2018-02-16T05:31:18.429Z,44.40
2018-02-16T05:32:18.659Z,43.70
2018-02-16T05:33:18.384Z,43.10
2018-02-16T05:34:18.364Z,43.90
2018-02-16T05:35:18.343Z,42.70
2018-02-16T05:36:18.324Z,41.40
2018-02-16T05:37:18.303Z,45.50
2018-02-16T05:38:18.277Z,43.10
2018-02-16T05:39:18.254Z,45.10
2018-02-16T05:40:18.236Z,42.80
2018-02-16T05:41:18.218Z,42.70
2018-02-16T05:42:18.446Z,42.00
2018-02-16T05:43:18.178Z,44.70
2018-02-16T05:44:18.152Z,44.30
2018-02-16T05:45:18.130Z,43.50
2018-02-16T05:46:18.110Z,43.50
2018-02-16T05:47:18.084Z,45.10
2018-02-16T05:48:18.062Z,47.70
2018-02-16T05:49:18.040Z,48.00
2018-02-16T05:50:18.025Z,48.20
2018-02-16T05:51:18.017Z,44.00
2018-02-16T05:52:17.977Z,46.70
2018-02-16T05:53:17.963Z,48.20
2018-02-16T05:54:17.934Z,47.50
2018-02-16T05:55:17.915Z,48.90
2018-02-16T05:56:17.891Z,46.40
2018-02-16T05:57:17.873Z,43.10
2018-02-16T05:58:17.846Z,43.30
2018-02-16T05:59:17.823Z,45.20
2018-02-16T06:00:17.811Z,43.70
2018-02-16T06:01:17.782Z,45.10
2018-02-16T06:02:17.766Z,43.00
2018-02-16T06:03:17.739Z,47.40
2018-02-16T06:04:17.716Z,50.30
2018-02-16T06:05:17.699Z,49.00
2018-02-16T06:06:17.677Z,46.70
2018-02-16T06:07:17.653Z,47.80
2018-02-16T06:08:17.635Z,48.10
2018-02-16T06:09:17.614Z,47.60
2018-02-16T06:10:17.589Z,46.60
2018-02-16T06:11:17.568Z,45.80
2018-02-16T06:12:17.550Z,47.60
2018-02-16T06:13:17.523Z,48.10
2018-02-16T06:14:17.510Z,48.60
2018-02-16T06:15:17.484Z,46.80
2018-02-16T06:16:17.958Z,44.50
2018-02-16T06:17:17.439Z,44.30
2018-02-16T06:18:17.415Z,42.30
2018-02-16T06:19:17.414Z,44.80
2018-02-16T06:20:17.374Z,47.10
2018-02-16T06:21:17.351Z,46.10
2018-02-16T06:22:17.335Z,44.20
2018-02-16T06:23:17.307Z,44.40
2018-02-16T06:24:17.336Z,40.80
2018-02-16T06:25:17.265Z,42.70
2018-02-16T06:26:17.244Z,42.90
2018-02-16T06:27:17.222Z,43.50
2018-02-16T06:28:17.249Z,41.40
2018-02-16T06:29:17.177Z,41.10
2018-02-16T06:30:17.164Z,40.90
2018-02-16T06:31:17.134Z,38.60
2018-02-16T06:32:17.261Z,41.00
2018-02-16T06:33:17.596Z,40.40
2018-02-16T06:34:17.423Z,38.90
2018-02-16T06:35:17.050Z,39.70
2018-02-16T06:36:17.026Z,40.00
2018-02-16T06:37:17.258Z,40.00
2018-02-16T06:38:17.034Z,39.20
2018-02-16T06:39:16.963Z,39.80
2018-02-16T06:40:16.942Z,39.70
2018-02-16T06:41:16.920Z,40.00
2018-02-16T06:42:16.905Z,40.50
2018-02-16T06:43:16.876Z,41.60
2018-02-16T06:44:16.852Z,40.00
2018-02-16T06:45:16.833Z,40.70
2018-02-16T06:46:16.812Z,41.80
2018-02-16T06:47:16.796Z,41.00
2018-02-16T06:48:16.767Z,45.20
2018-02-16T06:49:16.748Z,42.60
2018-02-16T06:50:16.723Z,45.00
2018-02-16T06:51:16.701Z,44.30
2018-02-16T06:52:16.680Z,45.70
2018-02-16T06:53:16.660Z,45.40
2018-02-16T06:54:16.791Z,45.50
2018-02-16T06:55:16.613Z,44.10
2018-02-16T06:56:16.593Z,44.70
2018-02-16T06:57:16.580Z,47.50
2018-02-16T06:58:16.550Z,45.30
2018-02-16T06:59:16.774Z,45.30
2018-02-16T07:00:16.513Z,43.60
2018-02-16T07:01:16.484Z,44.10
2018-02-16T07:02:16.462Z,45.70
2018-02-16T07:03:16.440Z,47.20
2018-02-16T07:04:16.672Z,45.20
2018-02-16T07:05:16.399Z,48.80
2018-02-16T07:06:16.373Z,46.10
2018-02-16T07:07:16.351Z,46.70
2018-02-16T07:08:16.336Z,44.70
2018-02-16T07:09:16.561Z,44.80
2018-02-16T07:10:16.295Z,44.40
2018-02-16T07:11:16.274Z,44.50
2018-02-16T07:12:16.250Z,44.10
2018-02-16T07:13:16.228Z,43.60
2018-02-16T07:14:16.454Z,44.00
2018-02-16T07:15:16.185Z,42.50
2018-02-16T07:16:16.163Z,43.20
2018-02-16T07:17:16.142Z,41.00
2018-02-16T07:18:16.125Z,40.50
2018-02-16T07:19:16.094Z,43.40
2018-02-16T07:20:16.075Z,42.70
2018-02-16T07:21:16.155Z,46.40
2018-02-16T07:22:16.031Z,44.80
2018-02-16T07:23:16.009Z,44.70
2018-02-16T07:24:15.987Z,49.60
2018-02-16T07:25:15.966Z,47.60
2018-02-16T07:26:15.947Z,46.50
2018-02-16T07:27:15.925Z,47.00
2018-02-16T07:28:15.902Z,48.90
2018-02-16T07:29:15.885Z,48.60
2018-02-16T07:30:16.118Z,47.60
2018-02-16T07:31:15.836Z,50.10
2018-02-16T07:32:15.828Z,46.30
2018-02-16T07:33:15.795Z,46.50
2018-02-16T07:34:15.771Z,48.40
2018-02-16T07:35:16.000Z,47.80
2018-02-16T07:36:15.734Z,49.20
2018-02-16T07:37:15.708Z,49.70
2018-02-16T07:38:15.693Z,47.50
2018-02-16T07:39:15.671Z,51.10
2018-02-16T07:40:15.897Z,45.50
2018-02-16T07:41:15.624Z,48.60
2018-02-16T07:42:15.605Z,46.80
2018-02-16T07:43:15.592Z,45.40
2018-02-16T07:44:15.560Z,45.60
2018-02-16T07:45:15.545Z,44.00
2018-02-16T07:46:15.520Z,45.70
2018-02-16T07:47:15.513Z,45.20
2018-02-16T07:48:15.476Z,46.60
2018-02-16T07:49:15.458Z,46.20
2018-02-16T07:50:15.441Z,45.80
2018-02-16T07:51:15.417Z,43.10
2018-02-16T07:52:15.393Z,48.00
2018-02-16T07:53:15.373Z,46.00
2018-02-16T07:54:15.356Z,44.50
2018-02-16T07:55:15.586Z,44.80
2018-02-16T07:56:15.320Z,43.20
2018-02-16T07:57:15.288Z,43.60
2018-02-16T07:58:15.273Z,43.10
2018-02-16T07:59:15.253Z,44.30
2018-02-16T08:00:15.225Z,44.50
2018-02-16T08:01:15.206Z,43.10
2018-02-16T08:02:15.192Z,42.90
2018-02-16T08:03:15.166Z,43.30
2018-02-16T08:04:15.143Z,43.20
2018-02-16T08:05:15.122Z,42.50
2018-02-16T08:06:15.104Z,42.50
2018-02-16T08:07:15.079Z,42.00
2018-02-16T08:08:15.628Z,40.70
2018-02-16T08:09:15.040Z,41.40
2018-02-16T08:10:15.022Z,40.70
2018-02-16T08:11:14.999Z,41.50
2018-02-16T08:12:14.978Z,40.70
2018-02-16T08:13:14.960Z,41.70
2018-02-16T08:14:14.985Z,39.90
2018-02-16T08:15:14.917Z,40.10
2018-02-16T08:16:14.901Z,38.20
2018-02-16T08:17:14.877Z,38.80
2018-02-16T08:18:14.861Z,38.90
2018-02-16T08:19:14.840Z,37.40
2018-02-16T08:20:14.826Z,37.50
2018-02-16T08:21:14.850Z,36.80
2018-02-16T08:22:14.776Z,35.70
2018-02-16T08:23:14.761Z,36.20
2018-02-16T08:24:14.735Z,36.40
2018-02-16T08:25:14.714Z,36.30
2018-02-16T08:26:14.695Z,35.50
2018-02-16T08:27:14.675Z,34.60
2018-02-16T08:28:14.656Z,36.40
2018-02-16T08:29:14.638Z,33.80
2018-02-16T08:30:14.612Z,33.70
2018-02-16T08:31:14.592Z,33.40
2018-02-16T08:32:14.573Z,32.60
2018-02-16T08:33:14.556Z,31.10
2018-02-16T08:34:14.531Z,31.80
2018-02-16T08:35:14.513Z,30.70
2018-02-16T08:36:14.743Z,31.80
2018-02-16T08:37:14.476Z,29.90
2018-02-16T08:38:14.456Z,30.10
2018-02-16T08:39:14.432Z,28.20
2018-02-16T08:40:14.415Z,27.50
2018-02-16T08:41:14.395Z,27.00
2018-02-16T08:42:14.378Z,26.70
2018-02-16T08:43:14.366Z,27.90
2018-02-16T08:44:14.338Z,27.80
2018-02-16T08:45:14.320Z,25.50
2018-02-16T08:46:14.303Z,24.10
2018-02-16T08:47:14.280Z,24.00
2018-02-16T08:48:14.262Z,24.40
2018-02-16T08:49:14.251Z,25.90
2018-02-16T08:50:14.227Z,23.50
2018-02-16T08:51:14.208Z,23.60
2018-02-16T08:52:14.194Z,22.80
2018-02-16T08:53:14.173Z,24.80
2018-02-16T08:54:14.158Z,23.40
2018-02-16T08:55:14.139Z,22.80
2018-02-16T08:56:14.122Z,23.30
2018-02-16T08:57:14.110Z,22.80
2018-02-16T08:58:14.098Z,23.30
2018-02-16T08:59:14.069Z,22.90
2018-02-16T09:00:14.054Z,23.30
2018-02-16T09:01:14.035Z,22.10
2018-02-16T09:02:14.026Z,21.90
2018-02-16T09:03:14.003Z,21.10
2018-02-16T09:04:13.989Z,20.00
2018-02-16T09:05:13.970Z,20.20
2018-02-16T09:06:13.959Z,20.30
2018-02-16T09:07:13.944Z,20.30
2018-02-16T09:08:13.927Z,19.50
2018-02-16T09:09:13.909Z,19.30
2018-02-16T09:10:13.901Z,20.10
2018-02-16T09:11:13.884Z,21.00
2018-02-16T09:12:13.865Z,19.60
2018-02-16T09:13:13.853Z,19.70
2018-02-16T09:14:13.837Z,18.00
2018-02-16T09:15:13.824Z,19.20
2018-02-16T09:16:13.808Z,18.60
2018-02-16T09:17:13.844Z,19.10
2018-02-16T09:18:13.776Z,18.30
2018-02-16T09:19:13.764Z,18.70
2018-02-16T09:20:13.757Z,17.90
2018-02-16T09:21:13.734Z,17.70
2018-02-16T09:22:13.722Z,18.00
2018-02-16T09:23:13.703Z,17.80
2018-02-16T09:24:13.690Z,16.70
2018-02-16T09:25:13.676Z,16.90
2018-02-16T09:26:13.667Z,17.80
2018-02-16T09:27:13.642Z,16.40
2018-02-16T09:28:13.630Z,17.90
2018-02-16T09:29:13.610Z,16.30
2018-02-16T09:30:13.596Z,16.10
2018-02-16T09:31:13.579Z,16.20
2018-02-16T09:32:13.565Z,16.70
2018-02-16T09:33:13.548Z,16.30
2018-02-16T09:34:13.532Z,15.40
2018-02-16T09:35:13.517Z,15.70
2018-02-16T09:36:13.504Z,14.00
2018-02-16T09:37:13.493Z,14.00
2018-02-16T09:38:13.467Z,16.80
2018-02-16T09:39:13.453Z,15.40
2018-02-16T09:40:13.437Z,15.90
2018-02-16T09:41:13.425Z,13.80
2018-02-16T09:42:13.711Z,14.40
2018-02-16T09:43:13.393Z,14.20
2018-02-16T09:44:13.383Z,13.80
2018-02-16T09:45:13.362Z,13.60
2018-02-16T09:46:13.349Z,12.50
2018-02-16T09:47:13.333Z,12.40
2018-02-16T09:48:13.326Z,12.00
2018-02-16T09:49:13.303Z,13.10
2018-02-16T09:50:13.286Z,12.30
2018-02-16T09:51:13.271Z,11.00
2018-02-16T09:52:13.256Z,10.70
2018-02-16T09:53:13.244Z,10.00
2018-02-16T09:54:13.227Z,10.70
2018-02-16T09:55:13.212Z,9.70
2018-02-16T09:56:13.202Z,9.90
2018-02-16T09:57:13.183Z,9.00
2018-02-16T09:58:13.181Z,9.40
2018-02-16T09:59:13.154Z,8.80
2018-02-16T10:00:13.186Z,8.00
2018-02-16T10:01:13.123Z,9.80
2018-02-16T10:02:13.155Z,10.00
2018-02-16T10:03:13.345Z,10.00
2018-02-16T10:04:13.087Z,9.00
2018-02-16T10:05:13.074Z,9.30
2018-02-16T10:06:13.061Z,9.40
2018-02-16T10:07:13.074Z,8.40
2018-02-16T10:08:13.037Z,9.30
2018-02-16T10:09:13.017Z,9.40
2018-02-16T10:10:13.004Z,8.20
2018-02-16T10:11:13.339Z,9.60
2018-02-16T10:12:13.424Z,9.30
2018-02-16T10:13:12.969Z,9.20
2018-02-16T10:14:13.026Z,9.20
2018-02-16T10:15:12.933Z,9.40
2018-02-16T10:16:13.006Z,9.90
2018-02-16T10:17:12.907Z,8.70
2018-02-16T10:18:12.905Z,9.30
2018-02-16T10:19:12.886Z,9.10
2018-02-16T10:20:12.980Z,9.20
2018-02-16T10:21:12.863Z,9.50
2018-02-16T10:22:12.905Z,9.30
2018-02-16T10:23:12.843Z,9.00
2018-02-16T10:24:12.835Z,9.60
2018-02-16T10:25:12.822Z,9.00
2018-02-16T10:26:12.818Z,9.60
2018-02-16T10:27:12.819Z,9.40
2018-02-16T10:28:12.807Z,9.60
2018-02-16T10:29:13.032Z,9.80
2018-02-16T10:30:12.775Z,9.80
2018-02-16T10:31:12.816Z,9.50
2018-02-16T10:32:12.762Z,10.20
2018-02-16T10:33:12.749Z,10.40
2018-02-16T10:34:12.776Z,10.50
2018-02-16T10:35:12.748Z,10.60
2018-02-16T10:36:12.753Z,10.30
2018-02-16T10:37:13.081Z,10.10
2018-02-16T10:38:12.721Z,14.10
2018-02-16T10:39:12.963Z,10.60
2018-02-16T10:40:12.705Z,11.70
2018-02-16T10:41:12.706Z,10.30
2018-02-16T10:42:12.701Z,10.60
2018-02-16T10:43:12.697Z,10.00
2018-02-16T10:44:12.695Z,10.60
2018-02-16T10:45:12.690Z,9.50
2018-02-16T10:46:12.691Z,10.30
2018-02-16T10:47:12.685Z,10.20
2018-02-16T10:48:12.683Z,10.20
2018-02-16T10:49:12.684Z,10.90
2018-02-16T10:50:12.683Z,10.40
2018-02-16T10:51:12.678Z,10.50
2018-02-16T10:52:12.675Z,10.90
2018-02-16T10:53:12.682Z,9.90
2018-02-16T10:54:12.933Z,9.50
2018-02-16T10:55:12.670Z,9.60
2018-02-16T10:56:12.672Z,10.20
2018-02-16T10:57:12.673Z,10.40
2018-02-16T10:58:12.665Z,10.00
2018-02-16T10:59:12.909Z,9.60
2018-02-16T11:00:12.660Z,10.00
2018-02-16T11:01:12.663Z,9.80
2018-02-16T11:02:12.705Z,10.70
2018-02-16T11:03:12.653Z,10.20
2018-02-16T11:04:12.655Z,10.40
2018-02-16T11:05:12.647Z,9.90
2018-02-16T11:06:12.644Z,10.10
2018-02-16T11:07:12.640Z,10.00
2018-02-16T11:08:12.634Z,11.50
2018-02-16T11:09:12.880Z,11.40
2018-02-16T11:10:12.630Z,11.00
2018-02-16T11:11:12.625Z,10.60
2018-02-16T11:12:12.615Z,10.60
2018-02-16T11:13:12.615Z,11.10
2018-02-16T11:14:12.609Z,11.20
2018-02-16T11:15:12.602Z,11.80
2018-02-16T11:16:12.594Z,10.30
2018-02-16T11:17:12.587Z,11.20
2018-02-16T11:18:12.585Z,11.50
2018-02-16T11:19:12.576Z,11.50
2018-02-16T11:20:12.577Z,11.10
2018-02-16T11:21:12.563Z,11.40
2018-02-16T11:22:12.562Z,12.00
2018-02-16T11:23:12.545Z,11.60
2018-02-16T11:24:12.795Z,12.00
2018-02-16T11:25:12.532Z,13.40
2018-02-16T11:26:12.523Z,12.80
2018-02-16T11:27:12.516Z,12.10
2018-02-16T11:28:12.507Z,12.60
2018-02-16T11:29:12.500Z,11.60
2018-02-16T11:30:12.493Z,12.80
2018-02-16T11:31:12.481Z,12.20
2018-02-16T11:32:12.474Z,12.60
2018-02-16T11:33:12.466Z,12.70
2018-02-16T11:34:13.063Z,12.90
2018-02-16T11:35:12.448Z,12.80
2018-02-16T11:36:12.446Z,12.00
2018-02-16T11:37:12.438Z,11.90
2018-02-16T11:38:12.425Z,12.40
2018-02-16T11:39:12.666Z,12.40
2018-02-16T11:40:12.411Z,11.90
2018-02-16T11:41:12.405Z,12.80
2018-02-16T11:42:12.398Z,12.50
2018-02-16T11:43:12.392Z,12.30
2018-02-16T11:44:12.643Z,12.00
2018-02-16T11:45:12.382Z,11.40
2018-02-16T11:46:12.387Z,11.90
2018-02-16T11:47:12.376Z,11.70
2018-02-16T11:48:12.368Z,11.60
2018-02-16T11:49:12.616Z,11.80
2018-02-16T11:50:12.361Z,11.50
2018-02-16T11:51:12.366Z,12.20
2018-02-16T11:52:12.360Z,11.60
2018-02-16T11:53:12.355Z,11.60
2018-02-16T11:54:12.602Z,11.90
2018-02-16T11:55:12.355Z,11.70
2018-02-16T11:56:12.348Z,11.80
2018-02-16T11:57:12.344Z,12.40
2018-02-16T11:58:12.337Z,11.60
2018-02-16T11:59:12.335Z,12.10
2018-02-16T12:00:12.332Z,12.30
2018-02-16T12:01:12.332Z,11.70
2018-02-16T12:02:12.326Z,12.20
2018-02-16T12:03:12.724Z,11.80
2018-02-16T12:04:12.322Z,11.70
2018-02-16T12:05:12.318Z,12.00
2018-02-16T12:06:12.310Z,12.40
2018-02-16T12:07:12.308Z,12.30
2018-02-16T12:08:12.300Z,12.90
2018-02-16T12:09:12.552Z,13.30
2018-02-16T12:10:12.294Z,12.50
2018-02-16T12:11:12.286Z,13.40
2018-02-16T12:12:12.277Z,12.80
2018-02-16T12:13:12.271Z,12.10
2018-02-16T12:14:12.265Z,12.30
2018-02-16T12:15:12.260Z,13.20
2018-02-16T12:16:12.251Z,12.40
2018-02-16T12:17:12.245Z,11.80
2018-02-16T12:18:12.236Z,12.00
2018-02-16T12:19:12.232Z,12.40
2018-02-16T12:20:12.221Z,11.40
2018-02-16T12:21:12.211Z,12.10
2018-02-16T12:22:12.206Z,11.80
2018-02-16T12:23:12.196Z,11.90
2018-02-16T12:24:12.441Z,12.40
2018-02-16T12:25:12.179Z,11.60
2018-02-16T12:26:12.177Z,12.30
2018-02-16T12:27:12.165Z,12.90
2018-02-16T12:28:12.165Z,12.40
2018-02-16T12:29:12.152Z,11.90
2018-02-16T12:30:12.149Z,11.80
2018-02-16T12:31:12.140Z,11.60
2018-02-16T12:32:12.137Z,12.60
2018-02-16T12:33:12.124Z,12.60
2018-02-16T12:34:12.118Z,12.00
2018-02-16T12:35:12.115Z,12.10
2018-02-16T12:36:12.105Z,11.30
2018-02-16T12:37:12.098Z,11.50
2018-02-16T12:38:12.092Z,11.30
2018-02-16T12:39:12.081Z,11.70
2018-02-16T12:40:12.075Z,11.20
2018-02-16T12:41:12.068Z,11.60
2018-02-16T12:42:12.060Z,11.30
2018-02-16T12:43:12.052Z,11.30
2018-02-16T12:44:12.045Z,11.60
2018-02-16T12:45:12.293Z,11.60
2018-02-16T12:46:12.033Z,11.60
2018-02-16T12:47:12.025Z,12.60
2018-02-16T12:48:12.021Z,11.90
2018-02-16T12:49:12.016Z,12.00
2018-02-16T12:50:12.010Z,11.40
2018-02-16T12:51:12.005Z,12.00
2018-02-16T12:52:12.006Z,11.20
2018-02-16T12:53:11.996Z,11.70
2018-02-16T12:54:11.991Z,11.50